SAC weather

San António Airport
Cunduacan, Tabasco, Mexico

Public forecast

Using degrees Celsius for public forecast. Weather courtesy of forecast.io.

Closest aviation weather report (METAR) to San António Airport

Closest report is Carlos Rovirosa Pérez International Airport, 23.7 nm (43.9 km) E. Retrieved 2019/11/22 00:47 UTC (47 minutes ago):

MMVA 220047Z 00000KT 7SM SKC 23/23 A2994

Closest aviation forecast (TAF) to San António Airport

Forecast is more than 6 hours old.

Closest forecast is Carlos Rovirosa Pérez International Airport, 23.7 nm (43.9 km) E. Retrieved 2019/11/21 18:00 UTC (8 hours ago):

TAF MMVA 211655Z 2118/2218 10010KT P6SM SCT020 FM220100 00000KT 4SM HZ SCT010 TEMPO 2212/2214 2SM BR FM221600 06010KT 4SM HZ SCT015